sensor_id;sensor_type;location;lat;lon;timestamp;temperature;humidity
11963;DHT22;62678;52.130;5.584;2023-04-01T00:00:25;11.00;99.90
11963;DHT22;62678;52.130;5.584;2023-04-01T00:02:52;11.00;99.90
11963;DHT22;62678;52.130;5.584;2023-04-01T00:05:19;11.00;99.90
11963;DHT22;62678;52.130;5.584;2023-04-01T00:07:46;11.00;99.90
11963;DHT22;62678;52.130;5.584;2023-04-01T00:10:13;11.00;99.90
11963;DHT22;62678;52.130;5.584;2023-04-01T00:12:41;11.00;99.90
11963;DHT22;62678;52.130;5.584;2023-04-01T00:15:11;11.00;99.90
11963;DHT22;62678;52.130;5.584;2023-04-01T00:17:38;11.00;99.90
11963;DHT22;62678;52.130;5.584;2023-04-01T00:20:06;11.10;99.90
11963;DHT22;62678;52.130;5.584;2023-04-01T00:22:35;11.10;99.90
11963;DHT22;62678;52.130;5.584;2023-04-01T00:25:02;11.10;99.90
11963;DHT22;62678;52.130;5.584;2023-04-01T00:27:29;11.10;99.90
11963;DHT22;62678;52.130;5.584;2023-04-01T00:29:56;11.10;99.90
11963;DHT22;62678;52.130;5.584;2023-04-01T00:32:25;11.10;99.90
11963;DHT22;62678;52.130;5.584;2023-04-01T00:34:53;11.00;99.90
11963;DHT22;62678;52.130;5.584;2023-04-01T00:37:22;11.00;99.90
11963;DHT22;62678;52.130;5.584;2023-04-01T00:39:50;11.00;99.90
11963;DHT22;62678;52.130;5.584;2023-04-01T00:42:17;11.10;99.90
11963;DHT22;62678;52.130;5.584;2023-04-01T00:44:47;11.00;99.90
11963;DHT22;62678;52.130;5.584;2023-04-01T00:47:15;11.00;99.90
11963;DHT22;62678;52.130;5.584;2023-04-01T00:49:46;11.00;99.90
11963;DHT22;62678;52.130;5.584;2023-04-01T00:52:16;11.10;99.90
11963;DHT22;62678;52.130;5.584;2023-04-01T00:54:47;11.00;99.90
11963;DHT22;62678;52.130;5.584;2023-04-01T00:57:19;11.00;99.90
11963;DHT22;62678;52.130;5.584;2023-04-01T00:59:50;11.00;99.90
11963;DHT22;62678;52.130;5.584;2023-04-01T01:02:19;11.10;99.90
11963;DHT22;62678;52.130;5.584;2023-04-01T01:04:47;11.10;99.90
11963;DHT22;62678;52.130;5.584;2023-04-01T01:07:21;11.10;99.90
11963;DHT22;62678;52.130;5.584;2023-04-01T01:09:55;11.10;99.90
11963;DHT22;62678;52.130;5.584;2023-04-01T01:12:27;11.10;99.90
11963;DHT22;62678;52.130;5.584;2023-04-01T01:15:04;11.00;99.90
11963;DHT22;62678;52.130;5.584;2023-04-01T01:17:42;11.10;99.90
11963;DHT22;62678;52.130;5.584;2023-04-01T01:20:52;11.00;99.90
11963;DHT22;62678;52.130;5.584;2023-04-01T01:26:48;11.00;99.90
11963;DHT22;62678;52.130;5.584;2023-04-01T01:29:33;11.00;99.90
11963;DHT22;62678;52.130;5.584;2023-04-01T01:32:10;10.90;99.90
11963;DHT22;62678;52.130;5.584;2023-04-01T01:34:43;10.90;99.90
11963;DHT22;62678;52.130;5.584;2023-04-01T01:37:16;10.80;99.90
11963;DHT22;62678;52.130;5.584;2023-04-01T01:39:48;10.80;99.90
11963;DHT22;62678;52.130;5.584;2023-04-01T01:42:17;10.90;99.90
11963;DHT22;62678;52.130;5.584;2023-04-01T01:44:47;10.80;99.90
11963;DHT22;62678;52.130;5.584;2023-04-01T01:47:16;10.90;99.90
11963;DHT22;62678;52.130;5.584;2023-04-01T01:49:43;10.80;99.90
11963;DHT22;62678;52.130;5.584;2023-04-01T01:52:13;10.80;99.90
11963;DHT22;62678;52.130;5.584;2023-04-01T01:54:47;10.70;99.90
11963;DHT22;62678;52.130;5.584;2023-04-01T01:57:15;10.70;99.90
11963;DHT22;62678;52.130;5.584;2023-04-01T01:59:45;10.70;99.90
11963;DHT22;62678;52.130;5.584;2023-04-01T02:02:15;10.70;99.90
11963;DHT22;62678;52.130;5.584;2023-04-01T02:04:43;10.70;99.90
11963;DHT22;62678;52.130;5.584;2023-04-01T02:07:15;10.60;99.90
11963;DHT22;62678;52.130;5.584;2023-04-01T02:09:45;10.60;99.90
11963;DHT22;62678;52.130;5.584;2023-04-01T02:12:14;10.60;99.90
11963;DHT22;62678;52.130;5.584;2023-04-01T02:14:45;10.60;99.90
11963;DHT22;62678;52.130;5.584;2023-04-01T02:17:16;10.60;99.90
11963;DHT22;62678;52.130;5.584;2023-04-01T02:19:47;10.60;99.90
11963;DHT22;62678;52.130;5.584;2023-04-01T02:22:19;10.60;99.90
11963;DHT22;62678;52.130;5.584;2023-04-01T02:24:46;10.60;99.90
11963;DHT22;62678;52.130;5.584;2023-04-01T02:27:15;10.60;99.90
11963;DHT22;62678;52.130;5.584;2023-04-01T02:29:42;10.60;99.90
11963;DHT22;62678;52.130;5.584;2023-04-01T02:32:09;10.60;99.90
11963;DHT22;62678;52.130;5.584;2023-04-01T02:34:37;10.60;99.90
11963;DHT22;62678;52.130;5.584;2023-04-01T02:37:04;10.60;99.90
11963;DHT22;62678;52.130;5.584;2023-04-01T02:39:33;10.70;99.90
11963;DHT22;62678;52.130;5.584;2023-04-01T02:41:59;10.60;99.90
11963;DHT22;62678;52.130;5.584;2023-04-01T02:44:26;10.50;99.90
11963;DHT22;62678;52.130;5.584;2023-04-01T02:46:53;10.60;99.90
11963;DHT22;62678;52.130;5.584;2023-04-01T02:49:20;10.60;99.90
11963;DHT22;62678;52.130;5.584;2023-04-01T02:51:47;10.60;99.90
11963;DHT22;62678;52.130;5.584;2023-04-01T02:54:14;10.60;99.90
11963;DHT22;62678;52.130;5.584;2023-04-01T02:56:42;10.50;99.90
11963;DHT22;62678;52.130;5.584;2023-04-01T02:59:09;10.50;99.90
11963;DHT22;62678;52.130;5.584;2023-04-01T03:01:36;10.50;99.90
11963;DHT22;62678;52.130;5.584;2023-04-01T03:04:04;10.40;99.90
11963;DHT22;62678;52.130;5.584;2023-04-01T03:06:31;10.40;99.90
11963;DHT22;62678;52.130;5.584;2023-04-01T03:08:57;10.40;99.90
11963;DHT22;62678;52.130;5.584;2023-04-01T03:11:24;10.40;99.90
11963;DHT22;62678;52.130;5.584;2023-04-01T03:13:53;10.30;99.90
11963;DHT22;62678;52.130;5.584;2023-04-01T03:16:20;10.40;99.90
11963;DHT22;62678;52.130;5.584;2023-04-01T03:18:47;10.50;99.90
11963;DHT22;62678;52.130;5.584;2023-04-01T03:21:17;10.40;99.90
11963;DHT22;62678;52.130;5.584;2023-04-01T03:23:44;10.30;99.90
11963;DHT22;62678;52.130;5.584;2023-04-01T03:26:11;10.40;99.90
11963;DHT22;62678;52.130;5.584;2023-04-01T03:28:39;10.30;99.90
11963;DHT22;62678;52.130;5.584;2023-04-01T03:31:07;10.40;99.90
11963;DHT22;62678;52.130;5.584;2023-04-01T03:33:34;10.30;99.90
11963;DHT22;62678;52.130;5.584;2023-04-01T03:36:01;10.40;99.90
11963;DHT22;62678;52.130;5.584;2023-04-01T03:38:28;10.30;99.90
11963;DHT22;62678;52.130;5.584;2023-04-01T03:40:55;10.40;99.90
11963;DHT22;62678;52.130;5.584;2023-04-01T03:43:22;10.40;99.90
11963;DHT22;62678;52.130;5.584;2023-04-01T03:45:51;10.40;99.90
11963;DHT22;62678;52.130;5.584;2023-04-01T03:48:19;10.40;99.90
11963;DHT22;62678;52.130;5.584;2023-04-01T03:50:46;10.40;99.90
11963;DHT22;62678;52.130;5.584;2023-04-01T03:53:13;10.50;99.90
11963;DHT22;62678;52.130;5.584;2023-04-01T03:55:40;10.40;99.90
11963;DHT22;62678;52.130;5.584;2023-04-01T03:58:07;10.40;99.90
11963;DHT22;62678;52.130;5.584;2023-04-01T04:00:34;10.40;99.90
11963;DHT22;62678;52.130;5.584;2023-04-01T04:03:02;10.40;99.90
11963;DHT22;62678;52.130;5.584;2023-04-01T04:05:30;10.50;99.90
11963;DHT22;62678;52.130;5.584;2023-04-01T04:07:57;10.40;99.90
11963;DHT22;62678;52.130;5.584;2023-04-01T04:10:24;10.50;99.90
11963;DHT22;62678;52.130;5.584;2023-04-01T04:12:52;10.50;99.90
11963;DHT22;62678;52.130;5.584;2023-04-01T04:15:19;10.50;99.90
11963;DHT22;62678;52.130;5.584;2023-04-01T04:17:46;10.50;99.90
11963;DHT22;62678;52.130;5.584;2023-04-01T04:20:13;10.40;99.90
11963;DHT22;62678;52.130;5.584;2023-04-01T04:22:42;10.40;99.90
11963;DHT22;62678;52.130;5.584;2023-04-01T04:25:09;10.50;99.90
11963;DHT22;62678;52.130;5.584;2023-04-01T04:27:36;10.50;99.90
11963;DHT22;62678;52.130;5.584;2023-04-01T04:30:04;10.50;99.90
11963;DHT22;62678;52.130;5.584;2023-04-01T04:32:31;10.50;99.90
11963;DHT22;62678;52.130;5.584;2023-04-01T04:34:58;10.50;99.90
11963;DHT22;62678;52.130;5.584;2023-04-01T04:37:25;10.50;99.90
11963;DHT22;62678;52.130;5.584;2023-04-01T04:39:54;10.50;99.90
11963;DHT22;62678;52.130;5.584;2023-04-01T04:42:21;10.50;99.90
11963;DHT22;62678;52.130;5.584;2023-04-01T04:44:48;10.60;99.90
11963;DHT22;62678;52.130;5.584;2023-04-01T04:47:14;10.60;99.90
11963;DHT22;62678;52.130;5.584;2023-04-01T04:49:41;10.60;99.90
11963;DHT22;62678;52.130;5.584;2023-04-01T04:52:08;10.50;99.90
11963;DHT22;62678;52.130;5.584;2023-04-01T04:54:35;10.60;99.90
11963;DHT22;62678;52.130;5.584;2023-04-01T04:57:03;10.60;99.90
11963;DHT22;62678;52.130;5.584;2023-04-01T04:59:30;10.50;99.90
11963;DHT22;62678;52.130;5.584;2023-04-01T05:01:57;10.50;99.90
11963;DHT22;62678;52.130;5.584;2023-04-01T05:04:24;10.50;99.90
11963;DHT22;62678;52.130;5.584;2023-04-01T05:06:51;10.60;99.90
11963;DHT22;62678;52.130;5.584;2023-04-01T05:09:18;10.70;99.90
11963;DHT22;62678;52.130;5.584;2023-04-01T05:11:45;10.70;99.90
11963;DHT22;62678;52.130;5.584;2023-04-01T05:14:14;10.70;99.90
11963;DHT22;62678;52.130;5.584;2023-04-01T05:16:41;10.70;99.90
11963;DHT22;62678;52.130;5.584;2023-04-01T05:19:08;10.70;99.90
11963;DHT22;62678;52.130;5.584;2023-04-01T05:21:36;10.70;99.90
11963;DHT22;62678;52.130;5.584;2023-04-01T05:24:03;10.70;99.90
11963;DHT22;62678;52.130;5.584;2023-04-01T05:26:30;10.70;99.90
11963;DHT22;62678;52.130;5.584;2023-04-01T05:28:58;10.70;99.90
11963;DHT22;62678;52.130;5.584;2023-04-01T05:31:26;10.80;99.90
11963;DHT22;62678;52.130;5.584;2023-04-01T05:33:53;10.80;99.90
11963;DHT22;62678;52.130;5.584;2023-04-01T05:36:20;10.70;99.90
11963;DHT22;62678;52.130;5.584;2023-04-01T05:38:47;10.80;99.90
11963;DHT22;62678;52.130;5.584;2023-04-01T05:41:14;10.80;99.90
11963;DHT22;62678;52.130;5.584;2023-04-01T05:43:42;10.80;99.90
11963;DHT22;62678;52.130;5.584;2023-04-01T05:46:08;10.80;99.90
11963;DHT22;62678;52.130;5.584;2023-04-01T05:48:37;10.80;99.90
11963;DHT22;62678;52.130;5.584;2023-04-01T05:51:04;10.80;99.90
11963;DHT22;62678;52.130;5.584;2023-04-01T05:53:31;10.80;99.90
11963;DHT22;62678;52.130;5.584;2023-04-01T05:56:05;10.90;99.90
11963;DHT22;62678;52.130;5.584;2023-04-01T05:58:33;10.80;99.90
11963;DHT22;62678;52.130;5.584;2023-04-01T06:01:02;10.80;99.90
11963;DHT22;62678;52.130;5.584;2023-04-01T06:03:29;11.00;99.90
11963;DHT22;62678;52.130;5.584;2023-04-01T06:05:57;11.00;99.90
11963;DHT22;62678;52.130;5.584;2023-04-01T06:08:24;11.00;99.90
11963;DHT22;62678;52.130;5.584;2023-04-01T06:11:00;11.00;99.90
11963;DHT22;62678;52.130;5.584;2023-04-01T06:13:41;11.00;99.90
11963;DHT22;62678;52.130;5.584;2023-04-01T06:16:18;11.00;99.90
11963;DHT22;62678;52.130;5.584;2023-04-01T06:19:00;11.00;99.90
11963;DHT22;62678;52.130;5.584;2023-04-01T06:21:50;11.10;99.90
11963;DHT22;62678;52.130;5.584;2023-04-01T06:24:35;11.10;99.90
11963;DHT22;62678;52.130;5.584;2023-04-01T06:27:14;11.10;99.90
11963;DHT22;62678;52.130;5.584;2023-04-01T06:30:10;11.10;99.90
11963;DHT22;62678;52.130;5.584;2023-04-01T06:33:02;11.10;99.90
11963;DHT22;62678;52.130;5.584;2023-04-01T06:35:45;11.20;99.90
11963;DHT22;62678;52.130;5.584;2023-04-01T06:38:33;11.20;99.90
11963;DHT22;62678;52.130;5.584;2023-04-01T06:41:33;11.20;99.90
11963;DHT22;62678;52.130;5.584;2023-04-01T06:44:13;11.20;99.90
11963;DHT22;62678;52.130;5.584;2023-04-01T06:46:45;11.20;99.90
11963;DHT22;62678;52.130;5.584;2023-04-01T06:49:30;11.20;99.90
11963;DHT22;62678;52.130;5.584;2023-04-01T06:52:04;11.20;99.90
11963;DHT22;62678;52.130;5.584;2023-04-01T06:54:38;11.20;99.90
11963;DHT22;62678;52.130;5.584;2023-04-01T06:57:18;11.10;99.90
11963;DHT22;62678;52.130;5.584;2023-04-01T06:59:47;11.20;99.90
11963;DHT22;62678;52.130;5.584;2023-04-01T07:02:23;11.20;99.90
11963;DHT22;62678;52.130;5.584;2023-04-01T07:04:54;11.30;99.90
11963;DHT22;62678;52.130;5.584;2023-04-01T07:07:29;11.40;99.90
11963;DHT22;62678;52.130;5.584;2023-04-01T07:10:00;11.30;99.90
11963;DHT22;62678;52.130;5.584;2023-04-01T07:12:36;11.30;99.90
11963;DHT22;62678;52.130;5.584;2023-04-01T07:15:16;11.40;99.90
11963;DHT22;62678;52.130;5.584;2023-04-01T07:17:47;11.40;99.90
11963;DHT22;62678;52.130;5.584;2023-04-01T07:20:20;11.30;99.90
11963;DHT22;62678;52.130;5.584;2023-04-01T07:22:51;11.30;99.90
11963;DHT22;62678;52.130;5.584;2023-04-01T07:25:22;11.30;99.90
11963;DHT22;62678;52.130;5.584;2023-04-01T07:27:52;11.30;99.90
11963;DHT22;62678;52.130;5.584;2023-04-01T07:30:22;11.30;99.90
11963;DHT22;62678;52.130;5.584;2023-04-01T07:32:51;11.30;99.90
11963;DHT22;62678;52.130;5.584;2023-04-01T07:35:23;11.20;99.90
11963;DHT22;62678;52.130;5.584;2023-04-01T07:38:11;11.20;99.90
11963;DHT22;62678;52.130;5.584;2023-04-01T07:40:49;11.30;99.90
11963;DHT22;62678;52.130;5.584;2023-04-01T07:43:41;11.30;99.90
11963;DHT22;62678;52.130;5.584;2023-04-01T07:46:17;11.30;99.90
11963;DHT22;62678;52.130;5.584;2023-04-01T07:48:52;11.20;99.90
11963;DHT22;62678;52.130;5.584;2023-04-01T07:51:27;11.30;99.90
11963;DHT22;62678;52.130;5.584;2023-04-01T07:54:01;11.30;99.90
11963;DHT22;62678;52.130;5.584;2023-04-01T07:56:36;11.40;99.90
11963;DHT22;62678;52.130;5.584;2023-04-01T07:59:13;11.40;99.90
11963;DHT22;62678;52.130;5.584;2023-04-01T08:01:47;11.40;99.90
11963;DHT22;62678;52.130;5.584;2023-04-01T08:04:25;11.50;99.90
11963;DHT22;62678;52.130;5.584;2023-04-01T08:07:00;11.50;99.90
11963;DHT22;62678;52.130;5.584;2023-04-01T08:09:33;11.50;99.90
11963;DHT22;62678;52.130;5.584;2023-04-01T08:12:13;11.50;99.90
11963;DHT22;62678;52.130;5.584;2023-04-01T08:14:52;11.40;99.90
11963;DHT22;62678;52.130;5.584;2023-04-01T08:17:28;11.40;99.90
11963;DHT22;62678;52.130;5.584;2023-04-01T08:20:18;11.40;99.90
11963;DHT22;62678;52.130;5.584;2023-04-01T08:22:51;11.40;99.90
11963;DHT22;62678;52.130;5.584;2023-04-01T08:25:25;11.30;99.90
11963;DHT22;62678;52.130;5.584;2023-04-01T08:27:58;11.40;99.90
11963;DHT22;62678;52.130;5.584;2023-04-01T08:30:28;11.40;99.90
11963;DHT22;62678;52.130;5.584;2023-04-01T08:33:01;11.50;99.90
11963;DHT22;62678;52.130;5.584;2023-04-01T08:35:37;11.50;99.90
11963;DHT22;62678;52.130;5.584;2023-04-01T08:38:11;11.50;99.90
11963;DHT22;62678;52.130;5.584;2023-04-01T08:40:58;11.50;99.90
11963;DHT22;62678;52.130;5.584;2023-04-01T08:43:46;11.70;99.90
11963;DHT22;62678;52.130;5.584;2023-04-01T08:49:22;11.80;99.90
11963;DHT22;62678;52.130;5.584;2023-04-01T08:52:10;11.80;99.90
11963;DHT22;62678;52.130;5.584;2023-04-01T08:54:51;11.80;99.90
11963;DHT22;62678;52.130;5.584;2023-04-01T08:57:36;11.60;99.90
11963;DHT22;62678;52.130;5.584;2023-04-01T09:00:19;11.70;99.90
11963;DHT22;62678;52.130;5.584;2023-04-01T09:06:11;11.80;99.90
11963;DHT22;62678;52.130;5.584;2023-04-01T09:08:53;11.80;99.90
11963;DHT22;62678;52.130;5.584;2023-04-01T09:11:31;11.80;99.90
11963;DHT22;62678;52.130;5.584;2023-04-01T09:14:21;11.90;99.90
11963;DHT22;62678;52.130;5.584;2023-04-01T09:20:27;12.00;99.90
11963;DHT22;62678;52.130;5.584;2023-04-01T09:26:17;12.10;99.90
11963;DHT22;62678;52.130;5.584;2023-04-01T09:28:59;12.00;99.90
11963;DHT22;62678;52.130;5.584;2023-04-01T09:31:54;12.10;99.90
11963;DHT22;62678;52.130;5.584;2023-04-01T09:34:45;12.20;99.90
11963;DHT22;62678;52.130;5.584;2023-04-01T09:37:21;12.20;99.90
11963;DHT22;62678;52.130;5.584;2023-04-01T09:40:14;12.30;99.90
11963;DHT22;62678;52.130;5.584;2023-04-01T09:42:44;12.50;99.90
11963;DHT22;62678;52.130;5.584;2023-04-01T09:45:23;12.40;99.90
11963;DHT22;62678;52.130;5.584;2023-04-01T09:48:04;12.40;99.90
11963;DHT22;62678;52.130;5.584;2023-04-01T09:50:38;12.50;99.90
11963;DHT22;62678;52.130;5.584;2023-04-01T09:53:31;12.60;99.90
11963;DHT22;62678;52.130;5.584;2023-04-01T09:56:26;12.60;99.90
11963;DHT22;62678;52.130;5.584;2023-04-01T10:02:34;12.60;99.90
11963;DHT22;62678;52.130;5.584;2023-04-01T10:05:53;12.70;99.90
11963;DHT22;62678;52.130;5.584;2023-04-01T10:11:57;12.90;99.90
11963;DHT22;62678;52.130;5.584;2023-04-01T10:20:56;13.00;99.90
11963;DHT22;62678;52.130;5.584;2023-04-01T10:23:50;12.90;99.90
11963;DHT22;62678;52.130;5.584;2023-04-01T10:26:32;13.00;99.90
11963;DHT22;62678;52.130;5.584;2023-04-01T10:29:47;13.10;99.90
11963;DHT22;62678;52.130;5.584;2023-04-01T10:32:45;12.70;99.90
11963;DHT22;62678;52.130;5.584;2023-04-01T10:38:49;12.50;99.90
11963;DHT22;62678;52.130;5.584;2023-04-01T10:42:07;12.50;99.90
11963;DHT22;62678;52.130;5.584;2023-04-01T10:51:15;12.50;99.90
11963;DHT22;62678;52.130;5.584;2023-04-01T10:53:54;12.50;99.90
11963;DHT22;62678;52.130;5.584;2023-04-01T10:56:50;12.40;99.90
11963;DHT22;62678;52.130;5.584;2023-04-01T11:00:02;12.40;99.90
11963;DHT22;62678;52.130;5.584;2023-04-01T11:03:10;12.20;99.90
11963;DHT22;62678;52.130;5.584;2023-04-01T11:06:31;12.40;99.90
11963;DHT22;62678;52.130;5.584;2023-04-01T11:09:34;12.30;99.90
11963;DHT22;62678;52.130;5.584;2023-04-01T11:12:45;12.20;99.90
11963;DHT22;62678;52.130;5.584;2023-04-01T11:15:31;12.20;99.90
11963;DHT22;62678;52.130;5.584;2023-04-01T11:18:42;12.00;99.90
11963;DHT22;62678;52.130;5.584;2023-04-01T11:21:42;11.90;99.90
11963;DHT22;62678;52.130;5.584;2023-04-01T11:24:41;12.00;99.90
11963;DHT22;62678;52.130;5.584;2023-04-01T11:27:30;12.10;99.90
11963;DHT22;62678;52.130;5.584;2023-04-01T11:30:15;12.10;99.90
11963;DHT22;62678;52.130;5.584;2023-04-01T11:33:02;12.00;99.90
11963;DHT22;62678;52.130;5.584;2023-04-01T11:35:55;12.00;99.90
11963;DHT22;62678;52.130;5.584;2023-04-01T11:38:52;12.10;99.90
11963;DHT22;62678;52.130;5.584;2023-04-01T11:41:28;12.10;99.90
11963;DHT22;62678;52.130;5.584;2023-04-01T11:47:03;12.20;99.90
11963;DHT22;62678;52.130;5.584;2023-04-01T11:49:47;12.20;99.90
11963;DHT22;62678;52.130;5.584;2023-04-01T11:52:37;12.10;99.90
11963;DHT22;62678;52.130;5.584;2023-04-01T11:55:19;12.20;99.90
11963;DHT22;62678;52.130;5.584;2023-04-01T11:58:07;12.10;99.90
11963;DHT22;62678;52.130;5.584;2023-04-01T12:06:30;12.10;99.90
11963;DHT22;62678;52.130;5.584;2023-04-01T12:09:06;12.20;99.90
11963;DHT22;62678;52.130;5.584;2023-04-01T12:11:44;12.20;99.90
11963;DHT22;62678;52.130;5.584;2023-04-01T12:14:18;12.20;99.90
11963;DHT22;62678;52.130;5.584;2023-04-01T12:16:55;12.40;99.90
11963;DHT22;62678;52.130;5.584;2023-04-01T12:19:34;12.40;99.90
11963;DHT22;62678;52.130;5.584;2023-04-01T12:22:14;12.60;99.90
11963;DHT22;62678;52.130;5.584;2023-04-01T12:24:49;12.90;99.90
11963;DHT22;62678;52.130;5.584;2023-04-01T12:27:35;13.00;99.90
11963;DHT22;62678;52.130;5.584;2023-04-01T12:30:27;13.00;99.90
11963;DHT22;62678;52.130;5.584;2023-04-01T12:33:10;13.00;99.90
11963;DHT22;62678;52.130;5.584;2023-04-01T12:35:52;12.70;99.90
11963;DHT22;62678;52.130;5.584;2023-04-01T12:38:30;12.50;99.90
11963;DHT22;62678;52.130;5.584;2023-04-01T12:41:09;12.60;99.90
11963;DHT22;62678;52.130;5.584;2023-04-01T12:44:02;12.70;99.90
11963;DHT22;62678;52.130;5.584;2023-04-01T12:46:42;12.70;99.90
11963;DHT22;62678;52.130;5.584;2023-04-01T12:49:44;12.50;99.90
11963;DHT22;62678;52.130;5.584;2023-04-01T12:52:23;12.40;99.90
11963;DHT22;62678;52.130;5.584;2023-04-01T12:55:26;12.50;99.90
11963;DHT22;62678;52.130;5.584;2023-04-01T13:01:21;12.20;99.90
11963;DHT22;62678;52.130;5.584;2023-04-01T13:07:17;12.30;99.90
11963;DHT22;62678;52.130;5.584;2023-04-01T13:09:55;12.40;99.90
11963;DHT22;62678;52.130;5.584;2023-04-01T13:12:40;12.40;99.90
11963;DHT22;62678;52.130;5.584;2023-04-01T13:15:22;12.40;99.90
11963;DHT22;62678;52.130;5.584;2023-04-01T13:17:54;12.40;99.90
11963;DHT22;62678;52.130;5.584;2023-04-01T13:20:32;12.50;99.90
11963;DHT22;62678;52.130;5.584;2023-04-01T13:23:12;12.50;99.90
11963;DHT22;62678;52.130;5.584;2023-04-01T13:25:46;12.50;99.90
11963;DHT22;62678;52.130;5.584;2023-04-01T13:28:17;12.60;99.90
11963;DHT22;62678;52.130;5.584;2023-04-01T13:30:52;12.40;99.90
11963;DHT22;62678;52.130;5.584;2023-04-01T13:33:30;12.40;99.90
11963;DHT22;62678;52.130;5.584;2023-04-01T13:36:08;12.40;99.90
11963;DHT22;62678;52.130;5.584;2023-04-01T13:38:57;12.30;99.90
11963;DHT22;62678;52.130;5.584;2023-04-01T13:41:38;12.20;99.90
11963;DHT22;62678;52.130;5.584;2023-04-01T13:44:14;12.20;99.90
11963;DHT22;62678;52.130;5.584;2023-04-01T13:46:54;12.20;99.90
11963;DHT22;62678;52.130;5.584;2023-04-01T13:49:57;12.30;99.90
11963;DHT22;62678;52.130;5.584;2023-04-01T13:52:50;12.40;99.90
11963;DHT22;62678;52.130;5.584;2023-04-01T13:55:26;12.40;99.90
11963;DHT22;62678;52.130;5.584;2023-04-01T13:58:36;12.40;99.90
11963;DHT22;62678;52.130;5.584;2023-04-01T14:01:08;12.50;99.90
11963;DHT22;62678;52.130;5.584;2023-04-01T14:03:57;12.50;99.90
11963;DHT22;62678;52.130;5.584;2023-04-01T14:06:40;12.50;99.90
11963;DHT22;62678;52.130;5.584;2023-04-01T14:09:32;12.60;99.90
11963;DHT22;62678;52.130;5.584;2023-04-01T14:12:08;12.60;99.90
11963;DHT22;62678;52.130;5.584;2023-04-01T14:14:52;12.50;99.90
11963;DHT22;62678;52.130;5.584;2023-04-01T14:17:44;12.40;99.90
11963;DHT22;62678;52.130;5.584;2023-04-01T14:20:27;12.30;99.90
11963;DHT22;62678;52.130;5.584;2023-04-01T14:23:13;12.10;99.90
11963;DHT22;62678;52.130;5.584;2023-04-01T14:26:02;12.00;99.90
11963;DHT22;62678;52.130;5.584;2023-04-01T14:28:35;11.90;99.90
11963;DHT22;62678;52.130;5.584;2023-04-01T14:34:26;11.90;99.90
11963;DHT22;62678;52.130;5.584;2023-04-01T14:37:20;11.90;99.90
11963;DHT22;62678;52.130;5.584;2023-04-01T14:40:04;11.80;99.90
11963;DHT22;62678;52.130;5.584;2023-04-01T14:42:55;11.80;99.90
11963;DHT22;62678;52.130;5.584;2023-04-01T14:45:45;11.70;99.90
11963;DHT22;62678;52.130;5.584;2023-04-01T14:48:23;11.90;99.90
11963;DHT22;62678;52.130;5.584;2023-04-01T14:50:53;12.00;99.90
11963;DHT22;62678;52.130;5.584;2023-04-01T14:53:27;12.00;99.90
11963;DHT22;62678;52.130;5.584;2023-04-01T14:55:57;12.10;99.90
11963;DHT22;62678;52.130;5.584;2023-04-01T14:58:31;12.10;99.90
11963;DHT22;62678;52.130;5.584;2023-04-01T15:01:23;12.10;99.90
11963;DHT22;62678;52.130;5.584;2023-04-01T15:03:59;12.20;99.90
11963;DHT22;62678;52.130;5.584;2023-04-01T15:06:49;12.10;99.90
11963;DHT22;62678;52.130;5.584;2023-04-01T15:09:27;12.10;99.90
11963;DHT22;62678;52.130;5.584;2023-04-01T15:12:04;12.10;99.90
11963;DHT22;62678;52.130;5.584;2023-04-01T15:14:43;12.10;99.90
11963;DHT22;62678;52.130;5.584;2023-04-01T15:17:27;12.10;99.90
11963;DHT22;62678;52.130;5.584;2023-04-01T15:20:12;12.20;99.90
11963;DHT22;62678;52.130;5.584;2023-04-01T15:25:45;12.20;99.90
11963;DHT22;62678;52.130;5.584;2023-04-01T15:28:26;12.20;99.90
11963;DHT22;62678;52.130;5.584;2023-04-01T15:31:01;12.10;99.90
11963;DHT22;62678;52.130;5.584;2023-04-01T15:33:39;12.20;99.90
11963;DHT22;62678;52.130;5.584;2023-04-01T15:36:18;12.10;99.90
11963;DHT22;62678;52.130;5.584;2023-04-01T15:38:50;12.00;99.90
11963;DHT22;62678;52.130;5.584;2023-04-01T15:41:23;11.90;99.90
11963;DHT22;62678;52.130;5.584;2023-04-01T15:43:52;12.00;99.90
11963;DHT22;62678;52.130;5.584;2023-04-01T15:49:27;12.00;99.90
11963;DHT22;62678;52.130;5.584;2023-04-01T15:52:05;11.90;99.90
11963;DHT22;62678;52.130;5.584;2023-04-01T15:55:01;11.90;99.90
11963;DHT22;62678;52.130;5.584;2023-04-01T15:57:40;11.90;99.90
11963;DHT22;62678;52.130;5.584;2023-04-01T16:00:28;11.80;99.90
11963;DHT22;62678;52.130;5.584;2023-04-01T16:03:17;11.70;99.90
11963;DHT22;62678;52.130;5.584;2023-04-01T16:05:59;11.60;99.90
11963;DHT22;62678;52.130;5.584;2023-04-01T16:08:58;11.60;99.90
11963;DHT22;62678;52.130;5.584;2023-04-01T16:11:36;11.50;99.90
11963;DHT22;62678;52.130;5.584;2023-04-01T16:14:14;11.40;99.90
11963;DHT22;62678;52.130;5.584;2023-04-01T16:16:58;11.40;99.90
11963;DHT22;62678;52.130;5.584;2023-04-01T16:19:41;11.40;99.90
11963;DHT22;62678;52.130;5.584;2023-04-01T16:22:14;11.40;99.90
11963;DHT22;62678;52.130;5.584;2023-04-01T16:24:46;11.50;99.90
11963;DHT22;62678;52.130;5.584;2023-04-01T16:27:19;11.30;99.90
11963;DHT22;62678;52.130;5.584;2023-04-01T16:29:55;11.30;99.90
11963;DHT22;62678;52.130;5.584;2023-04-01T16:32:37;11.30;99.90
11963;DHT22;62678;52.130;5.584;2023-04-01T16:35:21;11.30;99.90
11963;DHT22;62678;52.130;5.584;2023-04-01T16:37:52;11.20;99.90
11963;DHT22;62678;52.130;5.584;2023-04-01T16:40:26;11.10;99.90
11963;DHT22;62678;52.130;5.584;2023-04-01T16:43:09;11.10;99.90
11963;DHT22;62678;52.130;5.584;2023-04-01T16:45:42;11.10;99.90
11963;DHT22;62678;52.130;5.584;2023-04-01T16:48:14;11.10;99.90
11963;DHT22;62678;52.130;5.584;2023-04-01T16:50:48;11.00;99.90
11963;DHT22;62678;52.130;5.584;2023-04-01T16:53:21;10.90;99.90
11963;DHT22;62678;52.130;5.584;2023-04-01T16:55:55;10.80;99.90
11963;DHT22;62678;52.130;5.584;2023-04-01T16:58:27;10.80;99.90
11963;DHT22;62678;52.130;5.584;2023-04-01T17:01:02;10.70;99.90
11963;DHT22;62678;52.130;5.584;2023-04-01T17:03:35;10.80;99.90
11963;DHT22;62678;52.130;5.584;2023-04-01T17:06:20;10.70;99.90
11963;DHT22;62678;52.130;5.584;2023-04-01T17:09:14;10.70;99.90
11963;DHT22;62678;52.130;5.584;2023-04-01T17:11:49;10.60;99.90
11963;DHT22;62678;52.130;5.584;2023-04-01T17:14:25;10.60;99.90
11963;DHT22;62678;52.130;5.584;2023-04-01T17:20:09;10.50;99.90
11963;DHT22;62678;52.130;5.584;2023-04-01T17:22:44;10.50;99.90
11963;DHT22;62678;52.130;5.584;2023-04-01T17:25:24;10.40;99.90
11963;DHT22;62678;52.130;5.584;2023-04-01T17:27:59;10.50;99.90
11963;DHT22;62678;52.130;5.584;2023-04-01T17:30:34;10.40;99.90
11963;DHT22;62678;52.130;5.584;2023-04-01T17:33:30;10.40;99.90
11963;DHT22;62678;52.130;5.584;2023-04-01T17:36:06;10.40;99.90